Flight Track Log - Related Links

Times and Time Zones

All times are in EDT time to prevent confusion due to time zone crossing. See the N8275V flight status page for this flight to view local times or setup timezone preferences in your user account.

Time Position Orientation Groundspeed Altitude Reporting Facility
EDT Latitude Longitude Course Direction KTS MPH feet Rate Location/Type
Mon 11:55:38 AM 41.0667 -73.4167 355° North 92 106 3,500  Level New York TRACON
Mon 11:56:38 AM 41.1000 -73.4167 360° North 90 104 3,500 50 Level New York TRACON
Mon 11:57:38 AM 41.1167 -73.4333 323° Northwest 93 107 3,600 50 Climbing New York TRACON
Mon 11:58:38 AM 41.1500 -73.4333 360° North 102 117 3,600  Level New York TRACON
Mon 12:00:00 PM 41.3715 -73.4822 355° North  Level Estimated
Mon 12:00:00 PM 41.1809 -73.4488 339° North  Level FlightAware Approximate
Mon 12:07:00 PM 41.2971 -73.4842 12° North  Level FlightAware Approximate
Mon 12:08:00 PM 41.3208 -73.4781 11° North  Level FlightAware Approximate
Mon 12:09:00 PM 41.3445 -73.4722 11° North  Level FlightAware Approximate
Mon 12:10:00 PM 41.3667 -73.4667 11° North  Level FlightAware Approximate
Mon 12:11:00 PM 41.3715 -73.4822 11° North  Level Estimated
Mon 12:12:00 PM 41.3715 -73.4822 11° North  Level Estimated
Mon 12:13:00 PM 41.3715 -73.4822 11° North  Level Estimated
Mon 12:14:00 PM 41.3715 -73.4822 11° North  Level Estimated
Mon 12:15:00 PM 41.3715 -73.4822 11° North  Level Estimated
Mon 12:16:00 PM 41.3715 -73.4822 11° North  Level Estimated
Mon 12:17:00 PM 41.3715 -73.4822 11° North  Level Estimated
Mon 12:18:00 PM 41.3715 -73.4822 11° North  Level Estimated
Mon 12:19:00 PM 41.3715 -73.4822 11° North  Level Estimated
Mon 12:20:00 PM 41.3715 -73.4822 11° North  Level Estimated
Mon 12:21:00 PM 41.3715 -73.4822 11° North  Level Estimated
Mon 12:22:00 PM 41.3715 -73.4822 11° North  Level Estimated
Mon 12:23:00 PM 41.3715 -73.4822 11° North  Level Estimated
Mon 12:24:00 PM 41.3715 -73.4822 11° North  Level Estimated
Mon 12:25:00 PM 41.3715 -73.4822 11° North  Level Estimated
Mon 12:26:00 PM 41.3715 -73.4822 11° North  Level Estimated
Mon 12:27:00 PM 41.3715 -73.4822 11° North  Level Estimated
Mon 12:28:00 PM 41.3715 -73.4822 11° North  Level Estimated
Mon 12:29:00 PM 41.3715 -73.4822 11° North  Level Estimated
Mon 12:30:00 PM 41.3715 -73.4822 11° North  Level Estimated
Mon 12:31:00 PM 41.3715 -73.4822 11° North  Level Estimated
Mon 12:32:00 PM 41.3715 -73.4822 11° North  Level Estimated
Mon 12:33:00 PM 41.3715 -73.4822 11° North  Level Estimated
Mon 12:34:00 PM 41.3715 -73.4822 11° North  Level Estimated

Login

Don't have an account? Register now (free) for customized features, flight alerts, and more!